Time;durP1;ratioP1;P1;durP2;ratioP2;P2;SDS_P1;SDS_P2;PMS_P1;PMS_P2;Temp;Humidity;BMP_temperature;BMP_pressure;BME280_temperature;BME280_humidity;BME280_pressure;Samples;Min_cycle;Max_cycle;Signal;HPM_P1;HPM_P2
2021/01/31 00:00:23;;;;;;;41.23;19.97;;;;;;;3.33;73.72;93456.50;5133499;27;20188;-74
2021/01/31 00:02:49;;;;;;;47.83;19.77;;;;;;;3.53;72.89;93443.47;5133478;27;20669;-75
2021/01/31 00:05:15;;;;;;;39.37;20.00;;;;;;;3.53;73.15;93454.00;5114516;27;20191;-75
2021/01/31 00:07:40;;;;;;;42.80;20.10;;;;;;;3.73;72.36;93463.63;5133410;27;20786;-75
2021/01/31 00:10:07;;;;;;;53.20;22.47;;;;;;;3.44;72.87;93462.84;5133412;27;20209;-75
2021/01/31 00:12:32;;;;;;;50.72;22.33;;;;;;;3.80;72.20;93457.78;5133246;27;20173;-75
2021/01/31 00:14:58;;;;;;;46.03;21.33;;;;;;;4.09;70.90;93456.63;5133103;27;20253;-75
2021/01/31 00:17:23;;;;;;;45.83;22.33;;;;;;;3.90;71.23;93444.09;5133560;27;20410;-75
2021/01/31 00:19:49;;;;;;;47.43;23.37;;;;;;;4.13;70.51;93455.63;5132811;27;20232;-75
2021/01/31 00:22:14;;;;;;;52.67;22.90;;;;;;;3.76;71.98;93459.53;5133135;27;20196;-75
2021/01/31 00:24:40;;;;;;;47.67;23.27;;;;;;;4.14;70.75;93464.31;5132993;27;20663;-75
2021/01/31 00:27:05;;;;;;;43.30;21.20;;;;;;;4.29;70.58;93460.19;5132984;27;20198;-75
2021/01/31 00:29:31;;;;;;;45.87;21.63;;;;;;;3.98;71.37;93480.13;5132876;27;20172;-75
2021/01/31 00:31:56;;;;;;;49.73;24.53;;;;;;;3.94;72.49;93451.00;5132946;27;20168;-75
2021/01/31 00:34:22;;;;;;;53.53;25.00;;;;;;;3.96;71.79;93463.88;5132864;27;20168;-76
2021/01/31 00:36:48;;;;;;;54.70;24.10;;;;;;;3.69;72.52;93468.03;5132870;27;20219;-75
2021/01/31 00:39:14;;;;;;;46.67;22.33;;;;;;;3.76;72.29;93460.34;5132468;27;20661;-75
2021/01/31 00:41:39;;;;;;;42.30;21.27;;;;;;;4.16;71.35;93464.78;5132637;27;20238;-75
2021/01/31 00:44:06;;;;;;;47.60;24.00;;;;;;;3.62;72.72;93471.25;5133059;27;20173;-75
2021/01/31 00:46:33;;;;;;;49.70;23.17;;;;;;;3.78;72.38;93471.31;5132568;27;20169;-75
2021/01/31 00:48:59;;;;;;;48.22;23.25;;;;;;;3.42;73.27;93485.38;5114319;27;20184;-74
2021/01/31 00:51:24;;;;;;;48.50;22.07;;;;;;;3.67;73.24;93484.22;5113122;27;20195;-75
2021/01/31 00:53:50;;;;;;;48.13;23.63;;;;;;;3.81;71.68;93478.53;5132572;27;20173;-74
2021/01/31 00:56:15;;;;;;;45.67;21.93;;;;;;;3.64;72.65;93470.91;5132290;27;20172;-75
2021/01/31 00:58:43;;;;;;;46.90;22.77;;;;;;;3.79;72.08;93464.16;5132375;27;20208;-75
2021/01/31 01:01:08;;;;;;;42.53;19.88;;;;;;;4.17;71.22;93445.16;5114657;27;20733;-75
2021/01/31 01:03:34;;;;;;;42.33;21.03;;;;;;;4.15;70.60;93445.50;5132113;27;20177;-74
2021/01/31 01:05:59;;;;;;;39.97;19.63;;;;;;;3.95;71.65;93454.41;5132680;27;20173;-74
2021/01/31 01:08:25;;;;;;;45.27;21.53;;;;;;;4.11;71.37;93459.72;5132178;27;20165;-74
2021/01/31 01:10:50;;;;;;;43.67;20.20;;;;;;;4.08;71.55;93463.81;5132355;28;20172;-74
2021/01/31 01:13:16;;;;;;;41.57;20.83;;;;;;;3.89;72.04;93448.59;5132205;28;20569;-74
2021/01/31 01:15:41;;;;;;;39.53;19.90;;;;;;;4.20;70.96;93447.88;5132406;28;20169;-75
2021/01/31 01:18:07;;;;;;;43.80;20.47;;;;;;;4.33;71.00;93432.75;5132149;28;20169;-74
2021/01/31 01:20:32;;;;;;;37.10;18.83;;;;;;;4.48;70.05;93453.09;5132333;28;20204;-74
2021/01/31 01:22:58;;;;;;;36.73;18.87;;;;;;;4.41;69.78;93437.06;5132158;28;20653;-74
2021/01/31 01:25:23;;;;;;;28.07;16.20;;;;;;;4.29;71.31;93447.72;5132572;28;20196;-74
2021/01/31 01:27:49;;;;;;;39.27;18.77;;;;;;;4.41;70.74;93434.44;5132205;28;20552;-75
2021/01/31 01:30:17;;;;;;;35.90;18.67;;;;;;;4.43;70.36;93434.09;5131947;28;20197;-74
2021/01/31 01:32:42;;;;;;;34.40;18.90;;;;;;;4.44;70.37;93440.94;5132318;28;20252;-75
2021/01/31 01:35:08;;;;;;;36.20;19.27;;;;;;;4.18;71.37;93444.81;5131921;28;20180;-74
2021/01/31 01:37:34;;;;;;;34.77;18.00;;;;;;;4.45;70.48;93447.75;5132259;28;20210;-74
2021/01/31 01:40:00;;;;;;;35.47;19.10;;;;;;;4.18;71.10;93459.91;5131663;28;20477;-74
2021/01/31 01:42:25;;;;;;;33.13;18.23;;;;;;;4.23;71.59;93446.44;5132137;28;20180;-74
2021/01/31 01:44:51;;;;;;;34.03;16.63;;;;;;;4.44;70.38;93446.22;5131818;28;20161;-74
2021/01/31 01:47:19;;;;;;;35.30;17.07;;;;;;;3.91;72.01;93440.34;5132274;28;20212;-74
2021/01/31 01:49:47;;;;;;;28.17;16.27;;;;;;;3.83;73.07;93434.09;5096972;28;20284;-74
2021/01/31 01:52:16;;;;;;;38.17;18.33;;;;;;;4.14;71.42;93453.75;5114110;28;20659;-74
2021/01/31 01:54:44;;;;;;;38.22;17.65;;;;;;;3.97;71.69;93437.09;5131987;28;20177;-74
2021/01/31 01:57:15;;;;;;;32.60;16.83;;;;;;;4.12;72.15;93448.81;5113469;28;20177;-74
2021/01/31 01:59:41;;;;;;;29.05;14.80;;;;;;;4.37;70.86;93420.34;5131781;28;20685;-74
2021/01/31 02:02:08;;;;;;;31.23;17.07;;;;;;;4.24;71.03;93440.06;5096562;28;20272;-74
2021/01/31 02:04:33;;;;;;;32.10;16.73;;;;;;;4.45;71.03;93437.94;5113576;28;20180;-74
2021/01/31 02:06:59;;;;;;;33.80;16.30;;;;;;;3.82;72.44;93447.66;5115987;27;20192;-75
2021/01/31 02:09:25;;;;;;;41.90;17.70;;;;;;;4.16;72.26;93443.63;5135742;27;20185;-74
2021/01/31 02:11:58;;;;;;;36.83;18.20;;;;;;;4.04;71.92;93433.91;5135545;27;20169;-74
2021/01/31 02:14:23;;;;;;;43.72;19.88;;;;;;;3.85;72.57;93417.91;5135643;27;20269;-74
2021/01/31 02:17:06;;;;;;;39.73;18.30;;;;;;;4.22;71.92;93432.47;5099624;27;20185;-74
2021/01/31 02:20:02;;;;;;;36.42;17.33;;;;;;;3.94;73.10;93435.16;5102025;27;20196;-74
2021/01/31 02:22:32;;;;;;;28.98;16.73;;;;;;;4.28;71.13;93433.00;5135410;27;20181;-74
2021/01/31 02:25:03;;;;;;;34.35;15.52;;;;;;;3.98;72.47;93457.16;5135184;27;20157;-75
2021/01/31 02:27:46;;;;;;;28.35;14.77;;;;;;;3.95;73.23;93441.97;5135413;27;20222;-74
2021/01/31 02:30:46;;;;;;;31.25;16.30;;;;;;;4.26;71.25;93435.19;5135137;27;20181;-74
2021/01/31 02:33:30;;;;;;;27.17;14.88;;;;;;;4.36;70.92;93426.75;5071655;28;20183;-74
2021/01/31 02:36:24;;;;;;;35.30;16.48;;;;;;;4.19;70.97;93406.72;5071809;28;20233;-74
2021/01/31 02:39:27;;;;;;;28.90;15.00;;;;;;;4.44;71.01;93401.28;5011632;28;20232;-74
2021/01/31 02:42:07;;;;;;;30.80;14.35;;;;;;;4.41;70.25;93417.81;5012001;28;20211;-74
2021/01/31 02:44:33;;;;;;;27.60;15.05;;;;;;;4.41;70.83;93429.16;5012024;28;20713;-74
2021/01/31 02:46:59;;;;;;;34.97;16.50;;;;;;;4.29;70.15;93431.09;5011145;28;20200;-74
2021/01/31 02:49:38;;;;;;;33.03;16.67;;;;;;;4.38;69.93;93437.78;5011985;28;20272;-74
2021/01/31 02:52:05;;;;;;;24.00;13.63;;;;;;;4.46;70.18;93415.69;5011657;28;20183;-74
2021/01/31 02:54:40;;;;;;;30.08;14.10;;;;;;;4.38;70.55;93403.41;5011931;28;20173;-74
2021/01/31 02:57:09;;;;;;;29.65;15.23;;;;;;;4.05;70.97;93401.09;5011620;28;20246;-74
2021/01/31 02:59:44;;;;;;;29.48;14.20;;;;;;;4.23;70.72;93389.09;5011285;28;20217;-74
2021/01/31 03:02:14;;;;;;;23.25;13.10;;;;;;;4.18;70.36;93418.41;5011629;28;20603;-74
2021/01/31 03:04:45;;;;;;;22.88;12.57;;;;;;;4.00;71.93;93405.88;5011214;28;20192;-74
2021/01/31 03:07:15;;;;;;;26.77;13.60;;;;;;;3.96;71.00;93427.66;5011475;28;20181;-74
2021/01/31 03:09:57;;;;;;;34.88;15.15;;;;;;;3.49;72.64;93424.13;5029785;28;20187;-74
2021/01/31 03:12:40;;;;;;;27.55;14.30;;;;;;;3.79;71.76;93398.91;5056192;28;20284;-74
2021/01/31 03:15:16;;;;;;;29.10;13.73;;;;;;;4.13;70.43;93415.25;5083554;27;20210;-74
2021/01/31 03:18:11;;;;;;;27.10;14.95;;;;;;;3.60;72.50;93414.63;5114908;27;20188;-74
2021/01/31 03:20:56;;;;;;;21.27;11.77;;;;;;;3.63;72.39;93398.13;5115726;27;20681;-74
2021/01/31 03:23:28;;;;;;;24.33;12.85;;;;;;;3.39;73.77;93394.47;5116748;27;20190;-74
2021/01/31 03:25:59;;;;;;;19.63;11.32;;;;;;;3.76;72.68;93391.69;5099617;27;20256;-74
2021/01/31 03:28:24;;;;;;;26.20;12.70;;;;;;;3.45;73.53;93408.19;5099239;27;20185;-74
2021/01/31 03:30:50;;;;;;;20.07;11.80;;;;;;;3.23;74.19;93391.00;5115720;27;20645;-74
2021/01/31 03:33:46;;;;;;;22.20;11.60;;;;;;;4.00;72.06;93369.66;5115795;27;20200;-73
2021/01/31 03:36:11;;;;;;;25.25;11.45;;;;;;;3.90;72.16;93380.72;5117930;27;20189;-73
2021/01/31 03:38:39;;;;;;;21.00;11.83;;;;;;;3.70;72.78;93371.91;5102618;27;20232;-73
2021/01/31 03:41:06;;;;;;;23.35;12.30;;;;;;;3.80;72.53;93347.66;5115747;27;20261;-73
2021/01/31 03:43:32;;;;;;;25.27;12.25;;;;;;;3.62;73.05;93375.47;5133997;27;20169;-74
2021/01/31 03:46:09;;;;;;;21.27;11.07;;;;;;;3.93;71.52;93367.59;5133746;27;20172;-74
2021/01/31 03:48:42;;;;;;;22.15;11.63;;;;;;;4.07;71.02;93364.53;5132224;27;20637;-74
2021/01/31 03:51:07;;;;;;;27.00;12.90;;;;;;;3.90;71.70;93359.59;5116411;27;20228;-73
2021/01/31 03:53:33;;;;;;;19.30;9.50;;;;;;;4.27;70.74;93365.41;5132594;27;20260;-74
2021/01/31 03:55:59;;;;;;;19.40;11.75;;;;;;;4.30;70.82;93362.06;5149635;27;20172;-74
2021/01/31 03:58:24;;;;;;;21.23;10.90;;;;;;;3.98;71.53;93382.41;5132365;27;20550;-74
2021/01/31 04:00:52;;;;;;;20.67;10.40;;;;;;;3.96;72.01;93385.41;5115001;27;20705;-74
2021/01/31 04:03:19;;;;;;;19.42;10.50;;;;;;;4.02;71.34;93356.88;5132682;27;20187;-75
2021/01/31 04:06:08;;;;;;;20.48;10.52;;;;;;;4.10;70.63;93368.38;5133172;27;20234;-74
2021/01/31 04:08:35;;;;;;;20.52;9.25;;;;;;;4.12;70.72;93345.78;5115803;27;20717;-73
2021/01/31 04:11:00;;;;;;;17.58;9.90;;;;;;;4.33;69.75;93360.63;5132096;27;20184;-73
2021/01/31 04:13:26;;;;;;;17.23;10.30;;;;;;;3.79;71.64;93372.50;5133343;27;20536;-74
2021/01/31 04:15:53;;;;;;;26.23;10.80;;;;;;;3.90;71.89;93370.16;5114756;27;20184;-74
2021/01/31 04:18:19;;;;;;;21.73;10.40;;;;;;;3.94;71.37;93366.50;5114961;27;20255;-73
2021/01/31 04:20:45;;;;;;;16.25;9.68;;;;;;;3.51;72.62;93361.22;5132804;27;20615;-74
2021/01/31 04:23:10;;;;;;;21.83;11.17;;;;;;;3.72;71.59;93369.69;5131199;27;20267;-73
2021/01/31 04:25:36;;;;;;;16.63;10.63;;;;;;;3.19;73.36;93355.84;5132900;27;20203;-73
2021/01/31 04:28:12;;;;;;;18.07;9.67;;;;;;;3.37;73.21;93349.19;5132870;27;20169;-74
2021/01/31 04:30:39;;;;;;;23.75;10.75;;;;;;;3.48;72.46;93346.84;5131460;27;20198;-73
2021/01/31 04:33:04;;;;;;;20.25;10.63;;;;;;;3.29;72.57;93344.06;5132948;27;20710;-74
2021/01/31 04:35:30;;;;;;;19.23;10.60;;;;;;;3.45;72.32;93331.66;5132672;27;20169;-74
2021/01/31 04:37:55;;;;;;;17.53;10.83;;;;;;;3.80;70.98;93326.53;5132565;27;20660;-73
2021/01/31 04:40:21;;;;;;;19.27;11.60;;;;;;;3.88;70.67;93319.56;5132901;27;20228;-73
2021/01/31 04:42:46;;;;;;;18.90;10.87;;;;;;;3.55;71.62;93311.94;5124547;27;20253;-73
2021/01/31 04:45:12;;;;;;;19.47;11.10;;;;;;;3.57;71.58;93307.84;5131518;27;20637;-73
2021/01/31 04:48:04;;;;;;;18.53;10.13;;;;;;;3.57;71.25;93307.84;5106043;27;20169;-73
2021/01/31 04:50:36;;;;;;;21.23;11.50;;;;;;;3.90;70.75;93328.66;5114090;27;20827;-73
2021/01/31 04:53:16;;;;;;;24.45;11.77;;;;;;;4.13;69.71;93334.13;5109680;27;20173;-73
2021/01/31 04:56:01;;;;;;;22.00;12.38;;;;;;;3.89;70.25;93342.22;5110790;28;20166;-73
2021/01/31 04:58:30;;;;;;;19.60;10.93;;;;;;;3.86;70.83;93324.41;5104463;27;20703;-73
2021/01/31 05:00:57;;;;;;;19.35;11.00;;;;;;;3.51;71.00;93338.22;5117974;27;20216;-73
2021/01/31 05:03:23;;;;;;;21.02;11.07;;;;;;;3.13;72.59;93333.44;5133324;27;20702;-73
2021/01/31 05:06:00;;;;;;;18.85;10.68;;;;;;;3.34;72.41;93341.19;5113815;28;20200;-73
2021/01/31 05:08:26;;;;;;;18.27;10.63;;;;;;;3.58;71.26;93340.28;5112223;27;20185;-74
2021/01/31 05:10:53;;;;;;;16.70;10.45;;;;;;;3.30;71.98;93350.84;5107843;28;20645;-73
2021/01/31 05:13:30;;;;;;;20.08;10.93;;;;;;;3.40;71.73;93348.50;5114125;28;20696;-73
2021/01/31 05:15:59;;;;;;;18.27;10.40;;;;;;;3.58;71.26;93345.56;5113724;28;20237;-73
2021/01/31 05:18:25;;;;;;;20.92;10.88;;;;;;;3.72;70.68;93325.59;5114518;27;20186;-73
2021/01/31 05:20:52;;;;;;;21.63;10.97;;;;;;;3.56;71.08;93334.59;5152544;27;20200;-73
2021/01/31 05:23:18;;;;;;;19.33;10.27;;;;;;;3.69;71.11;93328.91;5117534;27;20204;-73
2021/01/31 05:25:44;;;;;;;17.95;10.35;;;;;;;3.77;69.90;93314.00;5134510;27;20168;-74
2021/01/31 05:28:10;;;;;;;18.60;10.17;;;;;;;4.10;69.32;93326.88;5153083;27;20171;-73
2021/01/31 05:30:39;;;;;;;19.20;10.23;;;;;;;3.86;69.80;93338.38;5133938;27;20184;-74
2021/01/31 05:33:18;;;;;;;21.70;9.82;;;;;;;4.00;70.05;93326.63;5117623;27;20628;-74
2021/01/31 05:36:12;;;;;;;16.90;9.63;;;;;;;3.94;69.78;93337.44;5152567;27;20588;-74
2021/01/31 05:38:41;;;;;;;17.20;10.45;;;;;;;3.56;71.09;93324.03;5152709;27;20696;-74
2021/01/31 05:41:24;;;;;;;17.77;10.00;;;;;;;3.70;70.81;93330.44;5154161;27;20200;-73
2021/01/31 05:44:15;;;;;;;19.42;10.32;;;;;;;3.43;71.57;93337.28;5156966;27;20708;-73
2021/01/31 05:46:51;;;;;;;19.30;9.77;;;;;;;4.50;88.10;93329.31;5153686;27;20181;-75
2021/01/31 05:49:37;;;;;;;14.32;7.90;;;;;;;6.69;74.84;93345.44;5138242;27;20168;-73
2021/01/31 05:52:04;;;;;;;15.40;8.30;;;;;;;7.65;68.69;93356.50;5156968;27;20264;-73
2021/01/31 05:54:34;;;;;;;16.70;8.30;;;;;;;5.57;62.88;93352.66;5155336;27;20473;-74
2021/01/31 05:57:00;;;;;;;16.03;8.07;;;;;;;5.07;65.09;93358.09;5156676;27;20802;-73
2021/01/31 05:59:40;;;;;;;13.77;7.67;;;;;;;4.85;65.86;93354.22;5156334;27;20457;-73
2021/01/31 06:02:05;;;;;;;14.70;8.15;;;;;;;4.34;67.56;93362.91;5138176;27;20648;-73
2021/01/31 06:04:31;;;;;;;19.27;9.70;;;;;;;4.07;68.56;93356.63;5140116;27;20173;-72
2021/01/31 06:07:07;;;;;;;14.07;8.50;;;;;;;4.00;68.68;93358.31;5134860;27;20558;-73
2021/01/31 06:09:47;;;;;;;16.10;9.10;;;;;;;4.07;68.73;93366.41;5107857;27;20969;-72
2021/01/31 06:12:23;;;;;;;16.40;9.15;;;;;;;3.82;69.28;93366.56;5126139;27;20549;-72
2021/01/31 06:15:15;;;;;;;14.70;8.57;;;;;;;3.78;69.96;93362.31;5116917;27;20672;-73
2021/01/31 06:17:41;;;;;;;16.55;8.68;;;;;;;3.62;70.31;93367.56;5133799;27;20179;-73
2021/01/31 06:20:09;;;;;;;16.37;8.23;;;;;;;3.66;71.06;93379.75;5133702;27;20220;-72
2021/01/31 06:22:41;;;;;;;20.10;9.32;;;;;;;3.76;70.00;93394.31;5133881;27;20589;-73
2021/01/31 06:25:07;;;;;;;17.63;8.55;;;;;;;3.33;72.16;93390.53;5135484;27;20173;-73
2021/01/31 06:27:34;;;;;;;15.90;9.10;;;;;;;3.71;70.95;93394.56;5134819;27;20176;-73
2021/01/31 06:30:08;;;;;;;19.98;9.60;;;;;;;3.92;70.48;93400.38;5129273;27;20373;-74
2021/01/31 06:32:34;;;;;;;18.08;10.35;;;;;;;3.71;70.94;93405.13;5112604;27;20267;-74
2021/01/31 06:35:06;;;;;;;28.37;13.07;;;;;;;4.00;70.62;93403.22;5113130;27;20199;-73
2021/01/31 06:37:45;;;;;;;27.13;13.70;;;;;;;3.75;71.64;93390.13;5134709;27;20626;-73
2021/01/31 06:40:16;;;;;;;44.22;18.77;;;;;;;3.61;71.82;93387.13;5116402;27;20235;-73
2021/01/31 06:42:57;;;;;;;42.15;21.17;;;;;;;4.13;70.45;93394.88;5134708;27;20158;-74
2021/01/31 06:45:35;;;;;;;43.90;21.02;;;;;;;4.34;69.54;93389.34;5131441;27;20179;-74
2021/01/31 06:48:19;;;;;;;37.95;18.83;;;;;;;4.03;71.28;93403.28;5134519;27;20547;-73
2021/01/31 06:50:56;;;;;;;34.42;17.45;;;;;;;4.05;70.55;93395.81;5134672;27;20264;-74
2021/01/31 06:53:27;;;;;;;35.03;16.77;;;;;;;4.24;70.08;93400.41;5134123;27;20580;-73
2021/01/31 06:56:22;;;;;;;37.85;18.90;;;;;;;4.40;69.89;93413.63;5114506;27;20165;-73
2021/01/31 06:59:21;;;;;;;43.33;21.27;;;;;;;4.25;70.41;93429.13;5096106;27;20272;-72
2021/01/31 07:02:03;;;;;;;46.55;24.20;;;;;;;4.41;69.12;93425.75;5154864;27;20187;-73
2021/01/31 07:04:47;;;;;;;45.85;23.60;;;;;;;4.41;70.03;93429.16;5136985;27;20180;-74
2021/01/31 07:07:47;;;;;;;58.30;25.58;;;;;;;3.96;71.58;93429.53;5134492;27;20177;-73
2021/01/31 07:10:37;;;;;;;53.17;24.55;;;;;;;4.20;70.60;93432.03;5129930;27;20169;-73
2021/01/31 07:13:10;;;;;;;51.70;25.30;;;;;;;3.97;71.41;93431.06;5113637;28;20178;-73
2021/01/31 07:15:48;;;;;;;48.97;23.35;;;;;;;3.97;71.30;93431.06;5126606;27;20665;-72
2021/01/31 07:18:21;;;;;;;47.72;24.13;;;;;;;4.23;70.23;93425.31;5133374;27;20207;-72
2021/01/31 07:20:49;;;;;;;46.17;22.55;;;;;;;4.43;69.63;93440.16;5133963;27;20594;-73
2021/01/31 07:23:25;;;;;;;49.53;23.10;;;;;;;4.18;71.01;93434.25;5133991;27;20169;-73
2021/01/31 07:25:56;;;;;;;41.30;21.40;;;;;;;4.33;70.50;93435.38;5115337;27;20169;-73
2021/01/31 07:28:27;;;;;;;44.72;22.20;;;;;;;4.18;70.62;93449.34;5115725;27;20161;-73
2021/01/31 07:31:11;;;;;;;46.97;23.10;;;;;;;4.05;70.82;93442.59;5134111;27;20620;-73
2021/01/31 07:33:56;;;;;;;50.00;24.60;;;;;;;4.29;70.76;93416.03;5134132;27;20161;-73
2021/01/31 07:36:23;;;;;;;46.58;21.88;;;;;;;4.44;69.99;93425.84;5132235;27;20246;-73
2021/01/31 07:39:03;;;;;;;45.45;23.55;;;;;;;4.53;70.24;93430.16;5127993;27;20217;-73
2021/01/31 07:41:28;;;;;;;40.00;20.83;;;;;;;4.69;68.99;93423.00;5112694;28;20173;-73
2021/01/31 07:44:04;;;;;;;55.13;22.47;;;;;;;4.45;69.85;93416.03;5132218;27;20173;-73
2021/01/31 07:46:29;;;;;;;38.28;20.08;;;;;;;4.43;70.14;93412.94;5115313;27;20157;-73
2021/01/31 07:48:57;;;;;;;40.93;20.93;;;;;;;4.85;68.89;93422.97;5133522;27;20684;-73
2021/01/31 07:51:26;;;;;;;39.85;21.83;;;;;;;4.86;68.86;93425.28;5133632;27;20169;-74
2021/01/31 07:53:51;;;;;;;41.88;20.10;;;;;;;4.97;68.48;93422.88;5133634;27;20173;-74
2021/01/31 07:56:32;;;;;;;38.90;21.17;;;;;;;5.04;68.10;93429.06;5131752;27;20714;-74
2021/01/31 07:58:58;;;;;;;32.67;18.55;;;;;;;4.77;68.41;93438.69;5131992;27;20192;-73
2021/01/31 08:01:43;;;;;;;37.40;19.60;;;;;;;4.73;68.83;93437.84;5133398;27;20249;-73
2021/01/31 08:04:18;;;;;;;35.70;18.73;;;;;;;5.13;67.93;93431.53;5131438;27;20165;-73
2021/01/31 08:06:51;;;;;;;37.00;19.27;;;;;;;5.01;68.21;93434.31;5113673;27;20425;-73
2021/01/31 08:09:26;;;;;;;36.75;19.77;;;;;;;5.19;67.54;93427.50;5129993;27;20189;-74
2021/01/31 08:12:02;;;;;;;32.65;18.48;;;;;;;5.20;67.63;93422.97;5132613;27;20171;-73
2021/01/31 08:15:04;;;;;;;35.72;20.17;;;;;;;4.92;69.58;93433.72;5132882;27;20177;-74
2021/01/31 08:17:45;;;;;;;36.53;19.55;;;;;;;4.90;68.11;93428.78;5131977;27;20255;-73
2021/01/31 08:20:17;;;;;;;37.97;19.57;;;;;;;5.34;67.45;93410.06;5132865;27;20205;-74
2021/01/31 08:22:43;;;;;;;37.30;20.77;;;;;;;5.42;68.17;93410.97;5133058;27;20419;-73
2021/01/31 08:25:08;;;;;;;41.60;21.13;;;;;;;5.31;68.62;93416.03;5132344;27;20173;-73
2021/01/31 08:27:37;;;;;;;35.77;20.20;;;;;;;5.25;68.90;93422.72;5133137;27;20613;-73
2021/01/31 08:30:13;;;;;;;39.83;21.53;;;;;;;5.59;68.03;93405.25;5123213;27;20260;-73
2021/01/31 08:33:03;;;;;;;46.13;22.27;;;;;;;5.60;67.62;93429.84;5115483;27;20481;-74
2021/01/31 08:35:38;;;;;;;41.93;20.03;;;;;;;5.86;66.25;93405.38;5111951;28;20439;-73
2021/01/31 08:38:16;;;;;;;44.73;20.10;;;;;;;6.09;65.45;93409.63;5109015;28;20531;-73
2021/01/31 08:41:00;;;;;;;40.67;21.33;;;;;;;6.13;65.49;93416.88;5104611;28;20642;-74
2021/01/31 08:43:39;;;;;;;40.70;19.33;;;;;;;6.39;63.35;93416.16;5129179;28;20437;-74
2021/01/31 08:46:14;;;;;;;46.63;20.37;;;;;;;6.45;65.93;93414.75;5130730;28;20448;-73
2021/01/31 08:48:41;;;;;;;46.20;23.33;;;;;;;6.44;66.53;93408.69;5131724;28;20518;-74
2021/01/31 08:51:17;;;;;;;40.73;20.53;;;;;;;6.56;65.16;93418.34;5131748;27;20451;-77
2021/01/31 08:53:42;;;;;;;35.63;18.97;;;;;;;6.95;62.87;93416.28;5131889;28;20542;-75
2021/01/31 08:56:22;;;;;;;36.30;18.90;;;;;;;7.16;64.29;93426.44;5113446;28;20542;-72
2021/01/31 08:58:47;;;;;;;35.43;17.63;;;;;;;7.29;60.82;93419.78;5113212;28;20556;-74
2021/01/31 09:01:13;;;;;;;31.73;14.20;;;;;;;7.34;61.22;93427.44;5131582;27;20458;-74
2021/01/31 09:03:42;;;;;;;21.20;10.37;;;;;;;7.49;58.58;93439.03;5113145;28;20230;-73
2021/01/31 09:06:08;;;;;;;19.63;11.20;;;;;;;7.48;58.55;93426.88;5113390;27;20193;-75
2021/01/31 09:08:34;;;;;;;19.43;11.83;;;;;;;7.75;57.18;93430.25;5131389;28;20776;-73
2021/01/31 09:11:03;;;;;;;22.93;11.70;;;;;;;7.78;58.68;93418.13;5113434;28;20169;-73
2021/01/31 09:13:30;;;;;;;17.47;8.97;;;;;;;7.73;58.63;93415.78;5130032;28;20617;-74
2021/01/31 09:16:19;;;;;;;12.93;6.37;;;;;;;7.56;57.04;93430.38;5129062;27;20800;-74
2021/01/31 09:18:45;;;;;;;8.37;4.40;;;;;;;7.85;54.53;93455.41;5131240;28;20931;-73
2021/01/31 09:21:24;;;;;;;7.80;5.13;;;;;;;7.74;56.06;93449.19;5112167;28;20473;-75
2021/01/31 09:23:49;;;;;;;9.43;3.60;;;;;;;7.79;54.69;93451.53;5112939;28;20172;-75
2021/01/31 09:26:15;;;;;;;5.23;4.23;;;;;;;7.89;54.37;93440.25;5113288;28;20418;-72
2021/01/31 09:28:40;;;;;;;6.80;4.70;;;;;;;7.71;55.88;93449.94;5130092;28;20197;-72
2021/01/31 09:31:06;;;;;;;10.63;5.87;;;;;;;7.63;57.36;93449.06;5131269;28;20619;-73
2021/01/31 09:33:38;;;;;;;10.33;6.77;;;;;;;7.71;58.52;93450.69;5095798;28;20165;-73
2021/01/31 09:36:25;;;;;;;27.27;13.90;;;;;;;7.65;58.77;93460.09;5130219;28;20180;-73
2021/01/31 09:38:51;;;;;;;27.60;14.77;;;;;;;7.74;58.13;93457.16;5113879;27;760935;-74
2021/01/31 09:41:18;;;;;;;27.97;13.43;;;;;;;7.46;58.21;93455.66;5134363;27;20568;-73
2021/01/31 09:43:44;;;;;;;22.10;11.67;;;;;;;7.51;57.14;93458.00;5134043;27;20937;-73
2021/01/31 09:46:11;;;;;;;16.00;8.67;;;;;;;7.31;57.72;93449.41;5134196;27;20418;-72
2021/01/31 09:48:37;;;;;;;22.53;10.20;;;;;;;7.38;57.82;93451.41;5134286;27;20461;-74
2021/01/31 09:51:04;;;;;;;25.87;12.70;;;;;;;7.40;57.70;93435.88;5134352;27;20418;-73
2021/01/31 09:53:36;;;;;;;22.87;12.13;;;;;;;7.60;56.51;93447.91;5133967;27;20180;-74
2021/01/31 09:56:04;;;;;;;23.90;12.33;;;;;;;7.36;58.07;93430.53;5152661;27;20418;-74
2021/01/31 09:58:43;;;;;;;23.53;12.80;;;;;;;7.52;55.86;93432.22;5133824;27;20432;-73
2021/01/31 10:01:11;;;;;;;21.70;12.47;;;;;;;7.59;56.96;93430.44;5151310;27;21079;-73
2021/01/31 10:03:37;;;;;;;27.83;14.57;;;;;;;7.63;56.46;93452.50;5134011;27;20415;-74
2021/01/31 10:06:16;;;;;;;27.33;14.80;;;;;;;7.47;56.69;93441.28;5116684;27;20850;-76
2021/01/31 10:09:02;;;;;;;27.47;14.40;;;;;;;7.61;59.33;93414.13;5133905;27;20167;-74
2021/01/31 10:11:28;;;;;;;27.23;15.20;;;;;;;7.47;58.72;93422.69;5152215;27;20426;-74
2021/01/31 10:13:54;;;;;;;30.13;16.73;;;;;;;7.46;58.97;93429.09;5124833;27;20487;-74
2021/01/31 10:16:24;;;;;;;28.10;15.30;;;;;;;7.65;59.26;93425.56;5109470;27;20502;-75
2021/01/31 10:18:50;;;;;;;31.47;17.90;;;;;;;7.66;58.61;93413.81;5092889;28;20185;-74
2021/01/31 10:21:33;;;;;;;35.57;19.03;;;;;;;7.69;59.41;93410.44;5109864;28;20486;-74
2021/01/31 10:24:06;;;;;;;40.03;20.80;;;;;;;7.76;58.59;93412.41;5093891;27;20165;-73
2021/01/31 10:26:31;;;;;;;37.43;19.90;;;;;;;7.79;57.73;93409.00;5111712;28;20931;-74
2021/01/31 10:28:59;;;;;;;35.77;21.17;;;;;;;7.65;60.91;93404.31;5096408;28;20502;-74
2021/01/31 10:31:35;;;;;;;39.93;21.40;;;;;;;7.65;59.47;93391.78;5114810;28;20166;-74
2021/01/31 10:34:02;;;;;;;41.53;22.23;;;;;;;7.66;59.63;93401.28;5112538;27;20408;-74
2021/01/31 10:36:34;;;;;;;43.53;22.80;;;;;;;7.72;60.07;93391.09;5114512;28;20913;-74
2021/01/31 10:39:08;;;;;;;42.67;21.77;;;;;;;7.79;58.39;93391.19;5103229;28;20992;-74
2021/01/31 10:41:34;;;;;;;39.50;22.40;;;;;;;7.66;60.90;93376.63;5093889;28;20496;-74
2021/01/31 10:44:01;;;;;;;37.83;23.10;;;;;;;7.76;59.48;93388.50;5093530;28;20896;-74
2021/01/31 10:46:27;;;;;;;45.43;22.13;;;;;;;7.59;59.84;93387.16;5094044;28;20174;-73
2021/01/31 10:48:53;;;;;;;40.33;21.03;;;;;;;7.76;58.57;93399.13;5077377;28;20415;-73
2021/01/31 10:51:18;;;;;;;40.30;21.63;;;;;;;7.75;56.83;93389.63;5113219;28;20177;-72
2021/01/31 10:53:44;;;;;;;34.33;18.87;;;;;;;7.68;57.54;93377.78;5095664;28;20227;-73
2021/01/31 10:56:09;;;;;;;36.20;19.90;;;;;;;7.88;58.38;93377.63;5094807;28;20209;-73
2021/01/31 10:58:35;;;;;;;41.08;23.88;;;;;;;7.92;57.66;93378.44;5102423;28;20419;-73
2021/01/31 11:01:00;;;;;;;46.47;21.80;;;;;;;7.98;57.21;93369.00;5113262;28;20204;-73
2021/01/31 11:03:26;;;;;;;45.93;22.53;;;;;;;8.10;57.55;93378.59;5113163;28;20600;-73
2021/01/31 11:05:51;;;;;;;36.10;20.70;;;;;;;7.98;57.30;93374.31;5113222;28;20530;-73
2021/01/31 11:08:17;;;;;;;38.77;20.83;;;;;;;7.76;58.25;93375.97;5113790;28;20340;-73
2021/01/31 11:10:42;;;;;;;40.77;19.53;;;;;;;7.74;58.25;93378.22;5113473;28;20178;-73
2021/01/31 11:13:08;;;;;;;40.23;21.47;;;;;;;8.05;57.73;93371.72;5113869;28;20154;-73
2021/01/31 11:15:33;;;;;;;42.60;21.43;;;;;;;8.11;57.00;93367.59;5113297;28;20165;-73
2021/01/31 11:17:59;;;;;;;41.50;22.07;;;;;;;8.12;58.13;93355.06;5113580;28;20166;-73
2021/01/31 11:20:24;;;;;;;37.93;21.30;;;;;;;8.18;56.93;93372.22;5112896;28;20201;-74
2021/01/31 11:22:50;;;;;;;39.50;21.50;;;;;;;8.32;56.06;93352.97;5113198;28;20180;-73
2021/01/31 11:25:15;;;;;;;45.17;21.57;;;;;;;8.47;55.49;93349.31;5111981;28;20162;-73
2021/01/31 11:27:41;;;;;;;44.50;22.43;;;;;;;8.35;56.75;93360.19;5110186;28;20168;-73
2021/01/31 11:30:07;;;;;;;45.60;23.30;;;;;;;8.16;58.52;93367.25;5108962;28;20162;-73
2021/01/31 11:32:32;;;;;;;39.27;21.83;;;;;;;8.46;55.48;93350.44;5092068;28;20682;-74
2021/01/31 11:34:58;;;;;;;45.43;21.87;;;;;;;8.54;55.23;93341.41;5094689;28;20423;-73
2021/01/31 11:37:23;;;;;;;44.67;22.30;;;;;;;8.38;56.94;93348.88;5113179;28;20162;-74
2021/01/31 11:39:49;;;;;;;36.03;20.30;;;;;;;8.54;56.01;93336.06;5124859;27;20217;-73
2021/01/31 11:42:14;;;;;;;38.23;21.63;;;;;;;8.31;56.64;93346.13;5113403;28;20174;-73
2021/01/31 11:44:40;;;;;;;42.60;21.97;;;;;;;8.38;56.69;93331.00;5113312;28;20197;-73